Time;durP1;ratioP1;P1;durP2;ratioP2;P2;SDS_P1;SDS_P2;PMS_P1;PMS_P2;Temp;Humidity;BMP_temperature;BMP_pressure;BME280_temperature;BME280_humidity;BME280_pressure;Samples;Min_cycle;Max_cycle;Signal;HPM_P1;HPM_P2
2021/01/25 00:01:04;;;;;;;8.47;3.17;;;-2.50;99.90;;;;;;5050916;28;20033;-80
2021/01/25 00:03:31;;;;;;;5.87;3.20;;;-2.50;99.90;;;;;;5041665;28;20035;-81
2021/01/25 00:05:56;;;;;;;6.37;3.10;;;-2.50;99.90;;;;;;5045845;28;20033;-78
2021/01/25 00:08:22;;;;;;;6.90;3.50;;;-2.50;99.90;;;;;;5047727;28;20060;-78
2021/01/25 00:10:48;;;;;;;7.70;3.00;;;-2.50;99.90;;;;;;5041437;28;20051;-80
2021/01/25 00:13:13;;;;;;;6.33;3.20;;;-2.50;99.90;;;;;;5037682;28;20033;-79
2021/01/25 00:15:39;;;;;;;7.50;3.33;;;-2.50;99.90;;;;;;5045674;28;20074;-80
2021/01/25 00:18:05;;;;;;;6.53;3.33;;;-2.60;99.90;;;;;;5050951;28;20032;-79
2021/01/25 00:20:30;;;;;;;6.97;3.57;;;-2.50;99.90;;;;;;5045566;28;20025;-79
2021/01/25 00:22:56;;;;;;;8.57;3.83;;;-2.60;99.90;;;;;;5049570;28;20302;-79
2021/01/25 00:25:21;;;;;;;8.87;3.50;;;-2.60;99.90;;;;;;5048440;28;20060;-79
2021/01/25 00:27:47;;;;;;;6.33;3.20;;;-2.60;99.90;;;;;;5051385;28;20029;-79
2021/01/25 00:30:19;;;;;;;6.93;3.47;;;-2.60;99.90;;;;;;5048123;28;20047;-78
2021/01/25 00:32:45;;;;;;;9.17;3.40;;;-2.60;99.90;;;;;;5053162;28;20052;-80
2021/01/25 00:35:12;;;;;;;7.80;3.00;;;-2.60;99.90;;;;;;5052094;28;20033;-80
2021/01/25 00:37:37;;;;;;;8.43;3.13;;;-2.60;99.90;;;;;;5049085;28;20041;-80
2021/01/25 00:40:05;;;;;;;6.87;3.63;;;-2.60;99.90;;;;;;5041841;28;20390;-80
2021/01/25 00:42:30;;;;;;;7.30;3.80;;;-2.60;99.90;;;;;;5037657;28;20049;-80
2021/01/25 00:44:56;;;;;;;8.70;4.03;;;-2.60;99.90;;;;;;5049890;28;20069;-80
2021/01/25 00:47:23;;;;;;;8.47;3.60;;;-2.60;99.90;;;;;;5049357;28;20037;-80
2021/01/25 00:49:48;;;;;;;8.37;3.60;;;-2.70;99.90;;;;;;5050525;28;20025;-77
2021/01/25 00:52:15;;;;;;;7.07;3.70;;;-2.70;99.90;;;;;;5044077;28;20112;-79
2021/01/25 00:54:41;;;;;;;6.83;3.93;;;-2.80;99.90;;;;;;5036202;28;20026;-79
2021/01/25 00:57:07;;;;;;;8.73;4.17;;;-2.80;99.90;;;;;;5051787;28;20052;-81
2021/01/25 00:59:32;;;;;;;10.30;4.53;;;-2.90;99.90;;;;;;5056200;28;20080;-79
2021/01/25 01:01:58;;;;;;;13.77;5.90;;;-2.90;99.90;;;;;;5042423;28;20021;-80
2021/01/25 01:04:24;;;;;;;10.33;5.60;;;-2.90;99.90;;;;;;5023976;28;20049;-79
2021/01/25 01:06:49;;;;;;;11.20;4.80;;;-2.90;99.90;;;;;;5048666;28;20062;-79
2021/01/25 01:09:15;;;;;;;9.17;4.27;;;-2.90;99.90;;;;;;5048337;28;20163;-79
2021/01/25 01:11:41;;;;;;;8.27;3.80;;;-2.90;99.90;;;;;;5043707;28;20029;-81
2021/01/25 01:14:06;;;;;;;8.80;3.80;;;-2.90;99.90;;;;;;5055896;28;20036;-80
2021/01/25 01:16:32;;;;;;;6.23;3.60;;;-3.00;99.90;;;;;;5059290;28;20047;-81
2021/01/25 01:18:58;;;;;;;6.50;3.50;;;-3.00;99.90;;;;;;5057721;28;20112;-81
2021/01/25 01:21:23;;;;;;;7.80;3.50;;;-3.10;99.90;;;;;;5054030;28;20171;-80
2021/01/25 01:23:49;;;;;;;5.87;3.33;;;-3.10;99.90;;;;;;5047117;28;20512;-79
2021/01/25 01:26:17;;;;;;;7.43;3.23;;;-3.20;99.90;;;;;;5051148;28;20133;-79
2021/01/25 01:28:43;;;;;;;6.70;3.70;;;-3.20;99.90;;;;;;5032670;28;20033;-79
2021/01/25 01:31:08;;;;;;;7.20;3.20;;;-3.30;99.90;;;;;;5050930;28;20521;-79
2021/01/25 01:33:34;;;;;;;6.43;3.77;;;-3.40;99.90;;;;;;5051114;28;20163;-79
2021/01/25 01:36:00;;;;;;;7.50;3.70;;;-3.40;99.90;;;;;;5051274;28;20075;-79
2021/01/25 01:38:25;;;;;;;5.87;3.47;;;-3.50;99.90;;;;;;5049822;28;20191;-79
2021/01/25 01:40:51;;;;;;;8.43;3.93;;;-3.50;99.90;;;;;;5055415;28;20032;-80
2021/01/25 01:43:17;;;;;;;6.47;3.60;;;-3.50;99.90;;;;;;5057084;28;20033;-80
2021/01/25 01:45:43;;;;;;;13.70;3.90;;;-3.50;99.90;;;;;;5058564;28;20059;-80
2021/01/25 01:48:09;;;;;;;9.37;3.47;;;-3.60;99.90;;;;;;5039199;28;20086;-79
2021/01/25 01:50:35;;;;;;;6.30;3.57;;;-3.60;99.90;;;;;;5053236;28;20045;-80
2021/01/25 01:53:01;;;;;;;7.13;3.43;;;-3.60;99.90;;;;;;5050297;28;20056;-80
2021/01/25 01:55:26;;;;;;;8.37;3.90;;;-3.70;99.90;;;;;;5052512;28;20466;-80
2021/01/25 01:57:54;;;;;;;7.77;3.57;;;-3.70;99.90;;;;;;5055097;28;20033;-80
2021/01/25 02:00:20;;;;;;;8.27;3.40;;;-3.80;99.90;;;;;;5050327;28;20033;-78
2021/01/25 02:02:46;;;;;;;5.67;2.90;;;-3.70;99.90;;;;;;5051135;28;20025;-81
2021/01/25 02:05:14;;;;;;;7.77;3.20;;;-3.80;99.90;;;;;;5053845;28;20041;-79
2021/01/25 02:07:42;;;;;;;8.17;3.23;;;-3.80;99.90;;;;;;5052473;28;20070;-80
2021/01/25 02:10:09;;;;;;;5.53;2.77;;;-3.80;99.90;;;;;;5051589;28;20032;-80
2021/01/25 02:12:35;;;;;;;6.23;3.00;;;-3.80;99.90;;;;;;5049489;28;20064;-78
2021/01/25 02:15:02;;;;;;;5.37;2.70;;;-3.80;99.90;;;;;;5050352;28;20013;-80
2021/01/25 02:17:29;;;;;;;7.63;2.87;;;-3.80;99.90;;;;;;5050069;28;20025;-78
2021/01/25 02:20:17;;;;;;;4.93;2.80;;;-3.80;99.90;;;;;;5052910;28;20025;-79
2021/01/25 02:23:17;;;;;;;5.28;2.90;;;-3.80;99.90;;;;;;5050160;28;20056;-79
2021/01/25 02:25:55;;;;;;;10.17;2.73;;;-3.90;99.90;;;;;;5049431;28;20491;-79
2021/01/25 02:28:20;;;;;;;8.53;3.87;;;-3.90;99.90;;;;;;5049386;28;20041;-80
2021/01/25 02:30:47;;;;;;;6.37;2.77;;;-3.90;99.90;;;;;;5048587;28;20090;-80
2021/01/25 02:33:15;;;;;;;4.97;2.30;;;-4.00;99.90;;;;;;5042402;28;20110;-80
2021/01/25 02:35:41;;;;;;;5.70;2.83;;;-4.00;99.90;;;;;;5049483;28;20025;-79
2021/01/25 02:38:09;;;;;;;6.77;2.80;;;-4.00;99.90;;;;;;5050036;28;20029;-80
2021/01/25 02:40:36;;;;;;;5.33;2.53;;;-4.00;99.90;;;;;;5048030;28;20482;-78
2021/01/25 02:43:02;;;;;;;4.37;2.00;;;-4.10;99.90;;;;;;5042556;28;20380;-80
2021/01/25 02:45:28;;;;;;;4.97;2.60;;;-4.10;99.90;;;;;;5043714;28;20059;-79
2021/01/25 02:47:54;;;;;;;4.90;2.07;;;-4.10;99.90;;;;;;5041730;28;20065;-79
2021/01/25 02:50:20;;;;;;;7.40;2.83;;;-4.10;99.90;;;;;;5049994;28;20044;-80
2021/01/25 02:52:46;;;;;;;7.23;2.20;;;-4.10;99.90;;;;;;5041427;28;20037;-79
2021/01/25 02:55:12;;;;;;;7.03;2.10;;;-4.10;99.90;;;;;;5049362;28;20025;-79
2021/01/25 02:57:39;;;;;;;5.50;2.40;;;-4.10;99.90;;;;;;5048411;28;20037;-80
2021/01/25 03:00:07;;;;;;;6.30;2.90;;;-4.10;99.90;;;;;;5048472;28;20117;-79
2021/01/25 03:02:34;;;;;;;5.30;2.50;;;-4.10;99.90;;;;;;5048456;28;20025;-80
2021/01/25 03:05:00;;;;;;;8.70;4.17;;;-4.10;99.90;;;;;;5049618;28;20033;-79
2021/01/25 03:07:27;;;;;;;7.77;3.07;;;-4.00;99.90;;;;;;5042455;28;20041;-81
2021/01/25 03:09:59;;;;;;;6.10;3.47;;;-4.00;99.90;;;;;;5038916;28;20380;-78
2021/01/25 03:12:25;;;;;;;8.07;4.13;;;-4.00;99.90;;;;;;5023229;28;20033;-78
2021/01/25 03:14:51;;;;;;;8.37;3.23;;;-3.90;99.90;;;;;;5050072;28;20393;-80
2021/01/25 03:17:17;;;;;;;8.03;2.83;;;-3.90;99.90;;;;;;5045295;28;20032;-79
2021/01/25 03:19:42;;;;;;;2.87;1.60;;;-3.80;99.90;;;;;;5048497;28;20028;-82
2021/01/25 03:22:08;;;;;;;4.67;2.13;;;-3.70;99.90;;;;;;5049639;28;20035;-79
2021/01/25 03:24:33;;;;;;;5.67;2.10;;;-3.60;99.90;;;;;;5043090;28;20087;-79
2021/01/25 03:26:59;;;;;;;3.53;1.83;;;-3.50;99.90;;;;;;5050918;28;20644;-80
2021/01/25 03:29:25;;;;;;;4.40;2.10;;;-3.50;99.90;;;;;;5038463;28;20044;-81
2021/01/25 03:31:50;;;;;;;6.53;2.83;;;-3.40;99.90;;;;;;5044711;28;20029;-79
2021/01/25 03:34:16;;;;;;;7.13;4.00;;;-3.40;99.90;;;;;;5048956;28;20052;-80
2021/01/25 03:36:41;;;;;;;5.20;2.80;;;-3.40;99.90;;;;;;5052094;28;20164;-80
2021/01/25 03:39:07;;;;;;;4.90;2.50;;;-3.40;99.90;;;;;;5050343;28;20530;-80
2021/01/25 03:41:33;;;;;;;6.67;3.10;;;-3.40;99.90;;;;;;5043894;28;20021;-79
2021/01/25 03:43:59;;;;;;;4.90;2.97;;;-3.40;99.90;;;;;;5047792;28;20025;-79
2021/01/25 03:46:24;;;;;;;6.00;2.60;;;-3.50;99.90;;;;;;5040427;28;21481;-79
2021/01/25 03:48:50;;;;;;;7.63;2.17;;;-3.50;99.90;;;;;;5049443;28;20040;-81
2021/01/25 03:51:19;;;;;;;4.33;2.30;;;-3.50;99.90;;;;;;5048160;28;20057;-80
2021/01/25 03:53:45;;;;;;;6.90;2.30;;;-3.50;99.90;;;;;;5049243;28;20021;-80
2021/01/25 03:56:10;;;;;;;3.90;2.37;;;-3.50;99.90;;;;;;5038481;28;20466;-80
2021/01/25 03:58:36;;;;;;;5.17;1.93;;;-3.50;99.90;;;;;;5042998;28;20080;-79
2021/01/25 04:01:02;;;;;;;4.93;2.20;;;-3.50;99.90;;;;;;5044754;28;20071;-80
2021/01/25 04:03:27;;;;;;;9.67;2.40;;;-3.50;99.90;;;;;;5039346;28;20029;-80
2021/01/25 04:05:53;;;;;;;3.40;1.90;;;-3.60;99.90;;;;;;5036292;28;20159;-80
2021/01/25 04:08:19;;;;;;;4.03;2.10;;;-3.60;99.90;;;;;;5044238;28;20032;-79
2021/01/25 04:10:45;;;;;;;4.70;2.10;;;-3.70;99.90;;;;;;5050257;28;20092;-79
2021/01/25 04:13:10;;;;;;;4.17;2.10;;;-3.70;99.90;;;;;;5056103;28;20025;-80
2021/01/25 04:15:36;;;;;;;10.17;2.63;;;-3.80;99.90;;;;;;5036884;28;20079;-80
2021/01/25 04:18:02;;;;;;;6.50;2.80;;;-3.90;99.90;;;;;;5062619;28;20037;-81
2021/01/25 04:20:28;;;;;;;5.47;2.70;;;-3.90;99.90;;;;;;5056544;28;20055;-78
2021/01/25 04:22:54;;;;;;;5.80;2.47;;;-3.90;99.90;;;;;;5028717;28;20029;-79
2021/01/25 04:25:19;;;;;;;4.77;2.20;;;-4.00;99.90;;;;;;5016866;28;20041;-80
2021/01/25 04:27:45;;;;;;;4.10;1.90;;;-3.90;99.90;;;;;;5039939;28;20033;-80
2021/01/25 04:30:11;;;;;;;4.03;1.83;;;-3.80;99.90;;;;;;5048208;28;20075;-80
2021/01/25 04:32:40;;;;;;;4.07;1.80;;;-3.70;99.90;;;;;;5040859;28;20034;-78
2021/01/25 04:35:11;;;;;;;3.00;1.88;;;-3.60;99.90;;;;;;5046431;28;20395;-80
2021/01/25 04:37:38;;;;;;;3.93;1.70;;;-3.50;99.90;;;;;;5041923;28;20033;-79
2021/01/25 04:40:06;;;;;;;3.17;1.87;;;-3.50;99.90;;;;;;5047204;28;20049;-81
2021/01/25 04:42:32;;;;;;;5.00;1.60;;;-3.40;99.90;;;;;;5030247;28;20528;-79
2021/01/25 04:44:58;;;;;;;4.33;1.87;;;-3.40;99.90;;;;;;5047227;28;20021;-79
2021/01/25 04:47:26;;;;;;;6.37;2.10;;;-3.40;99.90;;;;;;5039605;28;20037;-78
2021/01/25 04:49:51;;;;;;;7.63;1.70;;;-3.30;99.90;;;;;;5051283;28;20021;-78
2021/01/25 04:52:17;;;;;;;3.90;1.70;;;-3.30;99.90;;;;;;5049004;28;20100;-78
2021/01/25 04:54:45;;;;;;;3.63;1.60;;;-3.30;99.90;;;;;;5048731;28;20862;-79
2021/01/25 04:57:16;;;;;;;4.07;1.50;;;-3.30;99.90;;;;;;5045810;28;20337;-79
2021/01/25 04:59:45;;;;;;;2.67;1.50;;;-3.30;99.90;;;;;;5046503;28;20486;-78
2021/01/25 05:02:12;;;;;;;3.08;1.38;;;-3.30;99.90;;;;;;5044013;28;20053;-79
2021/01/25 05:04:39;;;;;;;3.50;1.53;;;-3.30;99.90;;;;;;5042817;28;20085;-79
2021/01/25 05:07:04;;;;;;;3.03;1.30;;;-3.30;99.90;;;;;;5050802;28;20039;-80
2021/01/25 05:09:30;;;;;;;4.33;1.70;;;-3.30;99.90;;;;;;5052063;28;20025;-80
2021/01/25 05:11:59;;;;;;;3.23;1.40;;;-3.40;99.90;;;;;;5051850;28;20144;-80
2021/01/25 05:14:25;;;;;;;4.70;1.50;;;-3.40;99.90;;;;;;5028432;28;20061;-82
2021/01/25 05:16:51;;;;;;;5.50;1.60;;;-3.40;99.90;;;;;;5044563;28;20347;-81
2021/01/25 05:19:17;;;;;;;6.53;1.73;;;-3.40;99.90;;;;;;5047201;28;20131;-81
2021/01/25 05:21:44;;;;;;;2.67;1.40;;;-3.30;99.90;;;;;;5048862;28;20033;-80
2021/01/25 05:24:12;;;;;;;4.60;2.20;;;-3.30;99.90;;;;;;5047367;28;20057;-80
2021/01/25 05:26:53;;;;;;;3.60;1.60;;;-3.30;99.90;;;;;;5053114;28;20037;-80
2021/01/25 05:29:26;;;;;;;3.37;1.60;;;-3.20;99.90;;;;;;5029625;28;20892;-80
2021/01/25 05:31:52;;;;;;;2.40;1.37;;;-3.30;99.90;;;;;;5046320;28;20441;-81
2021/01/25 05:34:21;;;;;;;4.27;2.20;;;-3.30;99.90;;;;;;5052941;28;20025;-80
2021/01/25 05:36:47;;;;;;;5.37;1.70;;;-3.30;99.90;;;;;;5052747;28;20043;-81
2021/01/25 05:39:20;;;;;;;2.10;1.20;;;-3.30;99.90;;;;;;5058513;28;20306;-82
2021/01/25 05:41:59;;;;;;;2.93;1.70;;;-3.40;99.90;;;;;;5066282;28;20044;-82
2021/01/25 05:44:26;;;;;;;2.55;1.30;;;-3.40;99.90;;;;;;5037171;28;20031;-78
2021/01/25 05:47:02;;;;;;;2.03;1.23;;;-3.40;99.90;;;;;;5061461;28;20043;-76
2021/01/25 05:49:28;;;;;;;4.30;1.70;;;-3.30;99.90;;;;;;5050060;28;20548;-75
2021/01/25 05:51:54;;;;;;;2.37;1.40;;;-3.30;99.90;;;;;;5042309;28;20033;-76
2021/01/25 05:54:24;;;;;;;3.00;1.60;;;-3.30;99.90;;;;;;5049071;28;20029;-76
2021/01/25 05:56:51;;;;;;;3.40;1.57;;;-3.30;99.90;;;;;;5048272;28;20021;-77
2021/01/25 05:59:17;;;;;;;3.97;1.40;;;-3.20;99.90;;;;;;5030756;28;20041;-79
2021/01/25 06:01:43;;;;;;;6.47;1.43;;;-3.20;99.90;;;;;;5035246;28;20032;-76
2021/01/25 06:04:30;;;;;;;2.93;1.40;;;-3.20;99.90;;;;;;5050015;28;20869;-77
2021/01/25 06:07:11;;;;;;;5.70;1.30;;;-3.20;99.90;;;;;;5049451;28;20037;-75
2021/01/25 06:09:53;;;;;;;6.00;1.70;;;-3.10;99.90;;;;;;5050171;28;20036;-76
2021/01/25 06:12:34;;;;;;;3.40;1.40;;;-3.10;99.90;;;;;;5049606;28;20781;-76
2021/01/25 06:15:16;;;;;;;4.53;1.90;;;-3.10;99.90;;;;;;5038626;28;20189;-75
2021/01/25 06:17:45;;;;;;;5.67;1.90;;;-3.10;99.90;;;;;;5049887;28;20044;-77
2021/01/25 06:20:11;;;;;;;6.47;2.03;;;-3.10;99.90;;;;;;5045974;28;20036;-76
2021/01/25 06:22:38;;;;;;;5.50;2.03;;;-3.00;99.90;;;;;;5049830;28;20037;-73
2021/01/25 06:25:07;;;;;;;7.67;2.17;;;-2.90;99.90;;;;;;5047622;28;20045;-75
2021/01/25 06:27:32;;;;;;;6.45;2.05;;;-2.90;99.90;;;;;;5049625;28;20048;-76
2021/01/25 06:30:02;;;;;;;4.47;2.03;;;-2.90;99.90;;;;;;5052013;28;20388;-74
2021/01/25 06:32:32;;;;;;;5.68;1.98;;;-2.90;99.90;;;;;;5047015;28;20034;-74
2021/01/25 06:35:01;;;;;;;5.23;1.90;;;-2.90;99.90;;;;;;5046789;28;20578;-74
2021/01/25 06:37:28;;;;;;;6.93;1.98;;;-2.80;99.90;;;;;;5048732;28;20048;-75
2021/01/25 06:39:57;;;;;;;7.93;2.00;;;-2.80;99.90;;;;;;5049726;28;20040;-74
2021/01/25 06:42:31;;;;;;;7.87;2.00;;;-2.80;99.90;;;;;;5047854;28;20479;-77
2021/01/25 06:44:59;;;;;;;9.77;3.20;;;-2.80;99.90;;;;;;5049178;28;20488;-77
2021/01/25 06:47:25;;;;;;;10.03;2.00;;;-2.80;99.90;;;;;;5057358;28;20039;-79
2021/01/25 06:49:51;;;;;;;7.10;2.17;;;-2.80;99.90;;;;;;5050977;28;20798;-78
2021/01/25 06:52:18;;;;;;;14.10;1.90;;;-2.70;99.90;;;;;;5051838;28;20391;-76
2021/01/25 06:54:44;;;;;;;8.13;2.80;;;-2.60;99.90;;;;;;5048690;28;20039;-74
2021/01/25 06:57:24;;;;;;;6.90;1.70;;;-2.60;99.90;;;;;;5046495;28;20025;-73
2021/01/25 06:59:51;;;;;;;7.57;2.13;;;-2.60;99.90;;;;;;5048449;28;20056;-73
2021/01/25 07:02:19;;;;;;;4.47;1.70;;;-2.60;99.90;;;;;;5022076;28;20468;-74
2021/01/25 07:04:50;;;;;;;6.33;1.60;;;-2.60;99.90;;;;;;5049828;28;20025;-76
2021/01/25 07:07:29;;;;;;;10.17;2.37;;;-2.60;99.90;;;;;;5048877;28;20041;-76
2021/01/25 07:09:57;;;;;;;10.52;1.92;;;-2.60;99.90;;;;;;5050349;28;20029;-76
2021/01/25 07:12:24;;;;;;;10.33;1.77;;;-2.50;99.90;;;;;;5044012;28;20037;-77
2021/01/25 07:14:51;;;;;;;10.03;1.90;;;-2.50;99.90;;;;;;5048437;28;20035;-75
2021/01/25 07:17:16;;;;;;;7.33;1.77;;;-2.50;99.90;;;;;;5048666;28;20454;-76
2021/01/25 07:19:44;;;;;;;9.27;2.50;;;-2.40;99.90;;;;;;5048130;28;20116;-74
2021/01/25 07:22:10;;;;;;;7.90;2.10;;;-2.30;99.90;;;;;;5049297;28;20064;-75
2021/01/25 07:24:37;;;;;;;10.37;1.70;;;-2.30;99.90;;;;;;5044047;28;20494;-75
2021/01/25 07:27:03;;;;;;;8.73;1.60;;;-2.30;99.90;;;;;;5030489;28;20033;-75
2021/01/25 07:29:29;;;;;;;9.40;2.10;;;-2.20;99.90;;;;;;5031779;28;20095;-74
2021/01/25 07:31:56;;;;;;;3.27;1.80;;;-2.10;99.90;;;;;;5034768;28;20108;-75
2021/01/25 07:34:23;;;;;;;5.73;1.60;;;-2.10;99.90;;;;;;5029030;28;20099;-74
2021/01/25 07:36:49;;;;;;;4.83;1.50;;;-2.10;99.90;;;;;;5031864;28;20619;-74
2021/01/25 07:39:17;;;;;;;7.30;1.50;;;-2.20;99.90;;;;;;5045368;28;20029;-75
2021/01/25 07:41:44;;;;;;;2.77;1.17;;;-2.20;99.90;;;;;;5035972;28;20032;-75
2021/01/25 07:44:10;;;;;;;7.53;1.50;;;-2.30;99.90;;;;;;5033735;28;20032;-75
2021/01/25 07:46:37;;;;;;;6.43;1.43;;;-2.40;99.90;;;;;;5031202;28;20356;-75
2021/01/25 07:49:03;;;;;;;5.00;1.63;;;-2.50;99.90;;;;;;5029407;28;20503;-76
2021/01/25 07:51:32;;;;;;;8.63;1.70;;;-2.60;99.90;;;;;;5031508;28;20480;-75
2021/01/25 07:53:58;;;;;;;5.68;1.52;;;-2.60;99.90;;;;;;5031713;28;20030;-76
2021/01/25 07:56:25;;;;;;;5.37;1.60;;;-2.70;99.90;;;;;;5029134;28;20088;-75
2021/01/25 07:59:03;;;;;;;3.10;1.40;;;-2.70;99.90;;;;;;5030460;28;20040;-75
2021/01/25 08:01:41;;;;;;;3.97;1.47;;;-2.70;99.90;;;;;;5033367;28;20117;-76
2021/01/25 08:04:11;;;;;;;8.63;1.80;;;-2.60;99.90;;;;;;5034928;28;20024;-76
2021/01/25 08:06:37;;;;;;;3.05;1.40;;;-2.60;99.90;;;;;;5038740;28;20064;-75
2021/01/25 08:09:11;;;;;;;5.20;1.70;;;-2.50;99.90;;;;;;5038524;28;20036;-75
2021/01/25 08:11:39;;;;;;;5.97;1.60;;;-2.50;99.90;;;;;;5047220;28;20032;-77
2021/01/25 08:14:31;;;;;;;6.00;1.60;;;-2.60;99.90;;;;;;5029249;28;20053;-76
2021/01/25 08:17:06;;;;;;;3.23;1.57;;;-2.60;99.90;;;;;;5036872;28;20025;-78
2021/01/25 08:20:08;;;;;;;7.67;1.60;;;-2.60;99.90;;;;;;5033604;28;20029;-76
2021/01/25 08:22:56;;;;;;;5.50;1.70;;;-2.50;99.90;;;;;;5037565;28;20037;-75
2021/01/25 08:25:27;;;;;;;4.53;1.50;;;-2.50;99.90;;;;;;5044103;28;20060;-75
2021/01/25 08:28:05;;;;;;;3.53;1.40;;;-2.50;99.90;;;;;;5052697;28;20071;-74
2021/01/25 08:30:42;;;;;;;4.80;1.40;;;-2.50;99.90;;;;;;5051990;28;20072;-74
2021/01/25 08:33:10;;;;;;;2.80;1.30;;;-2.50;99.90;;;;;;5027378;28;20071;-75
2021/01/25 08:35:39;;;;;;;4.03;1.47;;;-2.40;99.90;;;;;;5050992;28;20490;-75
2021/01/25 08:38:22;;;;;;;3.00;1.27;;;-2.50;99.90;;;;;;5051129;28;20105;-76
2021/01/25 08:40:48;;;;;;;2.47;1.20;;;-2.40;99.90;;;;;;5054159;28;20399;-75
2021/01/25 08:43:23;;;;;;;3.50;1.40;;;-2.40;99.90;;;;;;5052017;28;20029;-74
2021/01/25 08:45:50;;;;;;;3.80;1.30;;;-2.30;99.90;;;;;;5048770;28;20704;-75
2021/01/25 08:48:26;;;;;;;2.33;1.10;;;-2.30;99.90;;;;;;5042041;28;20032;-75
2021/01/25 08:50:52;;;;;;;4.77;1.87;;;-2.30;99.90;;;;;;5050796;28;20083;-74
2021/01/25 08:53:29;;;;;;;5.57;1.50;;;-2.20;99.90;;;;;;5052098;28;20037;-75
2021/01/25 08:55:57;;;;;;;4.70;1.80;;;-2.10;99.90;;;;;;5049865;28;20029;-76
2021/01/25 08:58:29;;;;;;;3.30;1.40;;;-2.10;99.90;;;;;;5050699;28;20061;-74
2021/01/25 09:00:55;;;;;;;3.07;1.67;;;-2.10;99.90;;;;;;5052152;28;20128;-76
2021/01/25 09:03:23;;;;;;;3.73;1.60;;;-2.10;99.90;;;;;;5051941;28;20104;-74
2021/01/25 09:05:52;;;;;;;4.17;1.70;;;-2.10;99.90;;;;;;5051611;28;20396;-75
2021/01/25 09:08:19;;;;;;;6.95;2.03;;;-2.00;99.90;;;;;;5051442;28;20108;-75
2021/01/25 09:10:45;;;;;;;4.73;1.70;;;-1.90;99.90;;;;;;5051548;28;20040;-75
2021/01/25 09:13:11;;;;;;;5.87;1.50;;;-1.90;99.90;;;;;;5051111;28;20368;-75
2021/01/25 09:15:38;;;;;;;3.10;1.60;;;-1.90;99.90;;;;;;5052240;28;20112;-75
2021/01/25 09:18:04;;;;;;;3.37;1.50;;;-1.80;99.90;;;;;;5057020;28;20021;-74
2021/01/25 09:20:30;;;;;;;3.23;1.63;;;-1.80;99.90;;;;;;5051224;28;20365;-74
2021/01/25 09:22:55;;;;;;;4.63;1.70;;;-1.80;99.90;;;;;;5051031;28;20037;-74
2021/01/25 09:25:22;;;;;;;3.87;2.00;;;-1.70;99.90;;;;;;5050586;28;20064;-75
2021/01/25 09:27:48;;;;;;;2.80;1.70;;;-1.70;99.90;;;;;;5048947;28;20579;-75
2021/01/25 09:30:16;;;;;;;4.13;1.97;;;-1.60;99.90;;;;;;5050785;28;20033;-75
2021/01/25 09:32:42;;;;;;;2.67;1.70;;;-1.60;99.90;;;;;;5049163;28;20044;-74
2021/01/25 09:35:10;;;;;;;5.17;1.90;;;-1.50;99.90;;;;;;5045775;28;20725;-74
2021/01/25 09:37:36;;;;;;;2.73;1.70;;;-1.50;99.90;;;;;;5050620;28;20020;-74
2021/01/25 09:40:03;;;;;;;6.50;2.10;;;-1.40;99.90;;;;;;5051537;28;20043;-75
2021/01/25 09:42:29;;;;;;;7.47;2.23;;;-1.30;99.90;;;;;;5048170;28;20341;-75
2021/01/25 09:44:55;;;;;;;3.10;1.67;;;-1.30;99.90;;;;;;5049994;28;20031;-75
2021/01/25 09:47:20;;;;;;;3.63;1.83;;;-1.20;99.90;;;;;;5052959;28;20048;-75
2021/01/25 09:49:46;;;;;;;4.43;2.13;;;-1.10;99.90;;;;;;5050470;28;20529;-74
2021/01/25 09:52:11;;;;;;;2.77;1.90;;;-1.10;99.90;;;;;;5050855;28;20545;-74
2021/01/25 09:54:38;;;;;;;4.67;1.97;;;-1.10;99.90;;;;;;5050446;28;20120;-75
2021/01/25 09:57:04;;;;;;;2.83;1.70;;;-1.00;99.90;;;;;;5050903;28;20102;-77
2021/01/25 09:59:30;;;;;;;4.03;1.63;;;-1.00;99.90;;;;;;5050178;28;20041;-75
2021/01/25 10:01:55;;;;;;;5.10;1.87;;;-0.90;99.90;;;;;;5053819;28;20029;-76
2021/01/25 10:04:21;;;;;;;5.77;2.10;;;-0.90;99.90;;;;;;5049147;28;20033;-75
2021/01/25 10:06:46;;;;;;;4.67;2.13;;;-0.90;99.90;;;;;;5049193;28;20036;-76
2021/01/25 10:09:12;;;;;;;5.43;2.07;;;-0.80;99.90;;;;;;5050409;28;20584;-75
2021/01/25 10:11:39;;;;;;;4.37;2.10;;;-0.80;99.90;;;;;;5049830;28;20119;-76
2021/01/25 10:14:04;;;;;;;4.73;2.50;;;-0.70;99.90;;;;;;5049194;28;20021;-77
2021/01/25 10:16:30;;;;;;;5.03;1.97;;;-0.70;99.90;;;;;;5046626;28;20027;-77
2021/01/25 10:18:55;;;;;;;5.00;2.40;;;-0.60;99.90;;;;;;5049157;28;20472;-75
2021/01/25 10:21:21;;;;;;;4.97;2.13;;;-0.60;99.90;;;;;;5049783;28;20541;-77
2021/01/25 10:23:48;;;;;;;4.60;2.03;;;-0.50;99.90;;;;;;5050492;28;20017;-74
2021/01/25 10:26:14;;;;;;;4.87;2.37;;;-0.50;99.90;;;;;;5056420;28;20079;-75
2021/01/25 10:28:40;;;;;;;5.67;2.60;;;-0.40;99.90;;;;;;5048271;28;20540;-75
2021/01/25 10:31:05;;;;;;;3.53;2.30;;;-0.40;99.90;;;;;;5050125;28;20048;-75
2021/01/25 10:33:31;;;;;;;6.00;2.30;;;-0.30;99.90;;;;;;5049885;28;20028;-76
2021/01/25 10:35:57;;;;;;;3.43;2.03;;;-0.30;99.90;;;;;;5049450;28;20033;-74
2021/01/25 10:38:24;;;;;;;4.23;2.50;;;-0.30;99.90;;;;;;5049961;28;20087;-74
2021/01/25 10:40:51;;;;;;;5.73;2.40;;;-0.30;99.90;;;;;;5049789;28;20017;-75
2021/01/25 10:43:16;;;;;;;3.80;2.57;;;-0.20;99.90;;;;;;5048614;28;20135;-75
2021/01/25 10:45:42;;;;;;;4.20;1.87;;;-0.20;99.90;;;;;;5049740;28;20091;-75
2021/01/25 10:48:08;;;;;;;4.53;2.63;;;-0.20;99.90;;;;;;5048659;28;20086;-76
2021/01/25 10:50:33;;;;;;;3.23;2.00;;;-0.20;99.90;;;;;;5053109;28;20025;-74
2021/01/25 10:52:59;;;;;;;6.27;2.00;;;-0.10;99.90;;;;;;5049850;28;20464;-75
2021/01/25 10:55:24;;;;;;;5.27;2.47;;;-0.10;99.90;;;;;;5049712;28;20024;-74
2021/01/25 10:57:50;;;;;;;3.93;2.73;;;-0.10;99.90;;;;;;5042949;28;20381;-74
2021/01/25 11:00:19;;;;;;;4.87;2.17;;;0.10;99.90;;;;;;5048644;28;20079;-75
2021/01/25 11:02:45;;;;;;;4.67;2.27;;;0.10;99.90;;;;;;5049565;28;20418;-75
2021/01/25 11:05:13;;;;;;;4.77;2.80;;;0.20;99.90;;;;;;5048745;28;20036;-74
2021/01/25 11:07:38;;;;;;;4.97;2.80;;;0.20;99.90;;;;;;5048523;28;20099;-75
2021/01/25 11:10:06;;;;;;;2.63;1.67;;;0.30;99.90;;;;;;5042744;28;20025;-75
2021/01/25 11:12:32;;;;;;;4.47;2.87;;;0.30;99.90;;;;;;5043710;28;20064;-74
2021/01/25 11:14:57;;;;;;;3.70;1.97;;;0.40;99.90;;;;;;5056790;28;20028;-74
2021/01/25 11:17:23;;;;;;;4.13;2.33;;;0.50;99.90;;;;;;5049280;28;20491;-75
2021/01/25 11:19:48;;;;;;;4.40;2.30;;;0.50;99.90;;;;;;5048572;28;20020;-74
2021/01/25 11:22:14;;;;;;;3.57;1.93;;;0.50;99.90;;;;;;5031865;28;20112;-74
2021/01/25 11:24:41;;;;;;;7.60;2.17;;;0.50;99.90;;;;;;5048640;28;20398;-74
2021/01/25 11:27:07;;;;;;;3.90;1.87;;;0.50;99.90;;;;;;5048976;28;20045;-75
2021/01/25 11:29:32;;;;;;;2.43;1.60;;;0.50;99.90;;;;;;5047933;28;20029;-73
2021/01/25 11:32:00;;;;;;;3.63;1.90;;;0.50;99.90;;;;;;5047352;28;20363;-75
2021/01/25 11:34:26;;;;;;;4.87;2.20;;;0.50;99.90;;;;;;5047549;28;20036;-76
2021/01/25 11:36:51;;;;;;;7.70;3.10;;;0.60;99.90;;;;;;5048451;28;20037;-73
2021/01/25 11:39:17;;;;;;;6.33;2.83;;;0.60;99.90;;;;;;5048015;28;20108;-74
2021/01/25 11:41:43;;;;;;;7.27;2.87;;;0.70;99.90;;;;;;5043051;28;20029;-76
2021/01/25 11:44:08;;;;;;;8.13;3.30;;;0.80;99.90;;;;;;5048326;28;20056;-74
2021/01/25 11:46:34;;;;;;;12.97;3.70;;;0.90;99.90;;;;;;5048003;28;20044;-75
2021/01/25 11:48:59;;;;;;;9.27;2.87;;;1.00;99.90;;;;;;5046455;28;20025;-74
2021/01/25 11:51:25;;;;;;;5.80;3.07;;;1.00;99.90;;;;;;5046924;28;20064;-75
2021/01/25 11:53:50;;;;;;;6.47;3.47;;;1.10;99.90;;;;;;5046261;28;20032;-76
2021/01/25 11:56:17;;;;;;;13.27;3.90;;;1.10;99.90;;;;;;5051579;28;20479;-75
2021/01/25 11:58:43;;;;;;;10.37;3.33;;;1.20;99.90;;;;;;5048288;28;20047;-74
2021/01/25 12:01:09;;;;;;;7.87;3.03;;;1.30;99.90;;;;;;5048245;28;20112;-74
2021/01/25 12:03:34;;;;;;;7.23;3.13;;;1.30;99.90;;;;;;5048759;28;20361;-75
2021/01/25 12:06:00;;;;;;;12.53;3.80;;;1.40;99.90;;;;;;5047767;28;20049;-74
2021/01/25 12:08:25;;;;;;;8.63;3.37;;;1.40;99.90;;;;;;5049099;28;20033;-76
2021/01/25 12:10:51;;;;;;;7.73;4.10;;;1.40;99.90;;;;;;5047979;28;20094;-74
2021/01/25 12:13:17;;;;;;;7.80;3.97;;;1.30;99.90;;;;;;5046695;28;20017;-74
2021/01/25 12:15:43;;;;;;;16.20;4.37;;;1.20;99.90;;;;;;5043773;28;20028;-74
2021/01/25 12:18:09;;;;;;;7.77;3.63;;;1.20;99.90;;;;;;5048856;28;20033;-74
2021/01/25 12:20:34;;;;;;;5.60;4.17;;;1.10;99.90;;;;;;5048418;28;20037;-75
2021/01/25 12:23:00;;;;;;;6.03;3.80;;;1.10;99.90;;;;;;5048490;28;20029;-75
2021/01/25 12:25:25;;;;;;;6.27;3.50;;;1.20;99.90;;;;;;5048068;28;20049;-74
2021/01/25 12:27:51;;;;;;;5.90;3.73;;;1.30;99.90;;;;;;5048373;28;20029;-75
2021/01/25 12:30:17;;;;;;;6.87;3.60;;;1.40;99.90;;;;;;5045735;28;20456;-79
2021/01/25 12:32:44;;;;;;;8.40;4.03;;;1.50;99.90;;;;;;5046892;28;20068;-77
2021/01/25 12:35:12;;;;;;;6.67;3.57;;;1.60;99.90;;;;;;5049679;28;20040;-78
2021/01/25 12:37:38;;;;;;;9.20;4.40;;;1.80;99.90;;;;;;5050358;28;20068;-77
2021/01/25 12:40:06;;;;;;;9.48;3.70;;;1.80;99.90;;;;;;5047982;28;20065;-79
2021/01/25 12:42:31;;;;;;;9.40;3.50;;;2.00;99.90;;;;;;5030664;28;20029;-76
2021/01/25 12:44:57;;;;;;;7.87;3.30;;;2.00;99.90;;;;;;5047932;28;20041;-79
2021/01/25 12:47:23;;;;;;;9.70;4.10;;;1.90;99.90;;;;;;5048388;28;20064;-81
2021/01/25 12:49:49;;;;;;;5.50;2.85;;;1.90;99.90;;;;;;5046972;28;20028;-79